PHOENIX SKY HARBOR INTL

KPHX (PHX)
Phoenix, Arizona
Towered

Vatsim Metar:
KPHX 011751Z 00000KT 10SM FEW100 FEW200 31/13 A2984 RMK AO2 SLP085 T03110128 10311 20244 50003 $

No ATC Online

Traffic

Inbound:
Ident
Type
Name
ETA
Phase
UAL2332
A20N
Simon Greenwood LEPA
Deplaning
SWA2546
B38M
Nicholas Joseph KFLL
Deplaning
UAL5512
B738
Daniel Johnson EGCC
19:07 Z
Cruse
AAL1731
B789
Nick Strong PHNL
Boarding
SWA501
B738
Rick Bynum 76S
19:58 Z
Climb
BAW634
B789
Daniel EGGD
20:43 Z
Descent
BAW289
A359
Brian Vlad KPHX
20:47 Z
Descent

Outbound:
Ident
Type
Name
Destination
Phase
AAL151
A320
Derek KFAR
KDEN
Taxiing Out